createdAt,value
2018-08-08T00:00:18.848Z,5.65
2018-08-08T00:02:47.303Z,5.10
2018-08-08T00:05:15.758Z,5.10
2018-08-08T00:07:44.453Z,4.83
2018-08-08T00:10:12.946Z,6.92
2018-08-08T00:12:41.641Z,5.17
2018-08-08T00:15:12.231Z,4.62
2018-08-08T00:17:41.599Z,4.92
2018-08-08T00:20:10.219Z,10.38
2018-08-08T00:22:38.821Z,5.40
2018-08-08T00:25:09.183Z,4.93
2018-08-08T00:27:37.875Z,6.55
2018-08-08T00:30:07.385Z,4.50
2018-08-08T00:32:35.941Z,4.65
2018-08-08T00:35:04.677Z,5.77
2018-08-08T00:37:33.093Z,5.12
2018-08-08T00:40:01.567Z,6.03
2018-08-08T00:42:29.990Z,6.78
2018-08-08T00:44:58.386Z,5.13
2018-08-08T00:47:26.890Z,5.97
2018-08-08T00:49:55.299Z,4.53
2018-08-08T00:52:23.782Z,6.75
2018-08-08T00:54:52.409Z,6.67
2018-08-08T00:57:21.000Z,4.75
2018-08-08T00:59:49.417Z,5.45
2018-08-08T01:02:17.821Z,4.85
2018-08-08T01:04:46.257Z,6.17
2018-08-08T01:07:14.674Z,4.53
2018-08-08T01:09:43.086Z,4.42
2018-08-08T01:12:11.732Z,5.20
2018-08-08T01:14:40.316Z,4.45
2018-08-08T01:17:08.766Z,6.42
2018-08-08T01:19:37.201Z,5.30
2018-08-08T01:22:05.739Z,10.65
2018-08-08T01:24:34.272Z,5.33
2018-08-08T01:27:02.642Z,6.00
2018-08-08T01:29:31.115Z,9.68
2018-08-08T01:31:59.485Z,5.20
2018-08-08T01:34:28.070Z,4.97
2018-08-08T01:36:56.546Z,5.62
2018-08-08T01:39:25.031Z,5.75
2018-08-08T01:41:53.413Z,7.53
2018-08-08T01:44:21.997Z,6.12
2018-08-08T01:46:50.473Z,6.40
2018-08-08T01:49:18.928Z,7.72
2018-08-08T01:51:47.306Z,5.35
2018-08-08T01:54:15.920Z,6.27
2018-08-08T01:56:44.382Z,6.33
2018-08-08T01:59:12.786Z,5.75
2018-08-08T02:01:41.205Z,5.75
2018-08-08T02:04:09.586Z,6.50
2018-08-08T02:06:38.248Z,5.93
2018-08-08T02:09:07.335Z,6.10
2018-08-08T02:11:35.989Z,7.83
2018-08-08T02:14:04.859Z,6.60
2018-08-08T02:16:33.380Z,6.60
2018-08-08T02:19:02.093Z,6.60
2018-08-08T02:21:30.534Z,7.60
2018-08-08T02:23:58.971Z,6.70
2018-08-08T02:26:27.395Z,7.47
2018-08-08T02:28:55.826Z,6.92
2018-08-08T02:31:24.260Z,6.43
2018-08-08T02:33:52.654Z,8.40
2018-08-08T02:36:21.084Z,7.07
2018-08-08T02:38:49.465Z,6.80
2018-08-08T02:41:18.016Z,6.67
2018-08-08T02:43:46.574Z,6.80
2018-08-08T02:46:14.949Z,6.63
2018-08-08T02:48:43.471Z,6.70
2018-08-08T02:51:11.902Z,9.40
2018-08-08T02:53:40.594Z,9.13
2018-08-08T02:56:09.011Z,6.80
2018-08-08T02:58:37.447Z,6.87
2018-08-08T03:01:06.058Z,7.23
2018-08-08T03:03:34.557Z,8.17
2018-08-08T03:06:02.996Z,6.85
2018-08-08T03:08:31.471Z,6.80
2018-08-08T03:10:59.979Z,6.90
2018-08-08T03:13:28.536Z,7.20
2018-08-08T03:15:57.068Z,7.63
2018-08-08T03:18:25.499Z,6.60
2018-08-08T03:20:54.037Z,7.77
2018-08-08T03:23:22.457Z,7.37
2018-08-08T03:25:50.930Z,7.97
2018-08-08T03:28:19.376Z,7.70
2018-08-08T03:30:47.792Z,7.83
2018-08-08T03:33:16.224Z,7.60
2018-08-08T03:35:44.581Z,8.93
2018-08-08T03:38:12.982Z,9.30
2018-08-08T03:40:41.441Z,9.95
2018-08-08T03:43:09.939Z,9.20
2018-08-08T03:45:38.510Z,9.95
2018-08-08T03:48:07.302Z,10.20
2018-08-08T03:50:35.887Z,11.05
2018-08-08T03:53:04.367Z,11.80
2018-08-08T03:55:32.849Z,11.70
2018-08-08T03:58:01.430Z,11.30
2018-08-08T04:00:29.890Z,11.10
2018-08-08T04:02:58.443Z,12.07
2018-08-08T04:05:26.911Z,13.48
2018-08-08T04:07:55.360Z,12.97
2018-08-08T04:10:23.739Z,11.27
2018-08-08T04:12:52.175Z,12.50
2018-08-08T04:15:20.738Z,11.93
2018-08-08T04:17:49.134Z,12.30
2018-08-08T04:20:17.611Z,12.13
2018-08-08T04:22:45.986Z,11.93
2018-08-08T04:25:15.069Z,12.47
2018-08-08T04:27:43.826Z,13.57
2018-08-08T04:30:15.010Z,11.80
2018-08-08T04:32:43.681Z,13.30
2018-08-08T04:35:12.238Z,12.43
2018-08-08T04:37:40.893Z,12.63
2018-08-08T04:40:12.755Z,13.17
2018-08-08T04:42:41.987Z,12.15
2018-08-08T04:45:10.569Z,11.60
2018-08-08T04:47:39.454Z,12.90
2018-08-08T04:50:08.581Z,12.03
2018-08-08T04:52:37.289Z,16.93
2018-08-08T04:55:06.822Z,13.18
2018-08-08T04:57:35.434Z,12.68
2018-08-08T05:00:04.783Z,12.67
2018-08-08T05:02:33.238Z,12.88
2018-08-08T05:05:01.809Z,12.07
2018-08-08T05:07:30.404Z,12.68
2018-08-08T05:09:58.857Z,12.05
2018-08-08T05:12:27.209Z,12.37
2018-08-08T05:14:55.621Z,12.75
2018-08-08T05:17:24.123Z,12.70
2018-08-08T05:19:52.557Z,12.15
2018-08-08T05:22:21.200Z,12.97
2018-08-08T05:24:49.626Z,13.43
2018-08-08T05:27:18.090Z,13.95
2018-08-08T05:29:46.627Z,13.18
2018-08-08T05:32:15.142Z,12.90
2018-08-08T05:34:43.581Z,12.55
2018-08-08T05:37:11.988Z,14.07
2018-08-08T05:39:40.407Z,15.50
2018-08-08T05:42:08.899Z,13.15
2018-08-08T05:44:37.266Z,12.50
2018-08-08T05:47:06.039Z,12.82
2018-08-08T05:49:34.675Z,12.50
2018-08-08T05:52:03.296Z,13.35
2018-08-08T05:54:31.809Z,13.65
2018-08-08T05:57:00.257Z,12.33
2018-08-08T05:59:28.832Z,12.10
2018-08-08T06:01:57.524Z,12.00
2018-08-08T06:04:25.937Z,12.60
2018-08-08T06:06:54.410Z,15.72
2018-08-08T06:09:22.880Z,13.45
2018-08-08T06:11:51.301Z,13.18
2018-08-08T06:14:19.757Z,13.25
2018-08-08T06:16:48.286Z,14.20
2018-08-08T06:19:16.716Z,13.32
2018-08-08T06:21:45.168Z,13.13
2018-08-08T06:24:13.575Z,13.53
2018-08-08T06:26:42.103Z,13.03
2018-08-08T06:29:10.534Z,12.63
2018-08-08T06:31:38.986Z,13.45
2018-08-08T06:34:07.391Z,13.35
2018-08-08T06:36:35.752Z,12.20
2018-08-08T06:39:06.767Z,13.20
2018-08-08T06:41:35.351Z,12.70
2018-08-08T06:44:03.916Z,12.82
2018-08-08T06:46:32.358Z,12.88
2018-08-08T06:49:00.733Z,11.90
2018-08-08T06:51:29.282Z,12.85
2018-08-08T06:53:57.719Z,12.93
2018-08-08T06:56:26.171Z,13.55
2018-08-08T06:58:54.624Z,13.78
2018-08-08T07:01:23.119Z,13.45
2018-08-08T07:03:51.612Z,12.80
2018-08-08T07:06:20.028Z,13.35
2018-08-08T07:08:48.558Z,13.30
2018-08-08T07:11:17.060Z,12.95
2018-08-08T07:13:45.487Z,13.00
2018-08-08T07:16:13.966Z,13.48
2018-08-08T07:18:42.506Z,13.30
2018-08-08T07:21:10.947Z,12.25
2018-08-08T07:23:39.407Z,12.68
2018-08-08T07:26:07.919Z,11.75
2018-08-08T07:28:36.362Z,11.90
2018-08-08T07:31:04.791Z,12.68
2018-08-08T07:33:33.226Z,11.68
2018-08-08T07:36:01.771Z,12.20
2018-08-08T07:38:30.434Z,11.38
2018-08-08T07:40:58.809Z,12.40
2018-08-08T07:43:27.325Z,12.85
2018-08-08T07:45:55.764Z,12.07
2018-08-08T07:48:24.268Z,11.12
2018-08-08T07:50:52.715Z,12.28
2018-08-08T07:53:21.174Z,12.35
2018-08-08T07:55:49.617Z,11.88
2018-08-08T07:58:18.075Z,10.68
2018-08-08T08:00:46.562Z,10.60
2018-08-08T08:03:14.951Z,11.28
2018-08-08T08:05:43.435Z,12.60
2018-08-08T08:08:11.818Z,11.28
2018-08-08T08:10:40.197Z,11.08
2018-08-08T08:13:08.659Z,13.58
2018-08-08T08:15:37.056Z,11.25
2018-08-08T08:18:05.555Z,11.75
2018-08-08T08:20:33.922Z,10.67
2018-08-08T08:23:02.545Z,11.68
2018-08-08T08:25:30.946Z,10.03
2018-08-08T08:27:59.552Z,10.13
2018-08-08T08:30:27.959Z,9.47
2018-08-08T08:32:56.425Z,9.00
2018-08-08T08:35:24.831Z,8.78
2018-08-08T08:37:53.207Z,12.00
2018-08-08T08:40:21.693Z,9.80
2018-08-08T08:42:50.115Z,9.93
2018-08-08T08:45:18.469Z,10.43
2018-08-08T08:47:46.899Z,9.93
2018-08-08T08:50:15.346Z,10.30
2018-08-08T08:52:43.697Z,9.40
2018-08-08T08:55:12.093Z,10.25
2018-08-08T08:57:40.761Z,9.08
2018-08-08T09:00:11.093Z,11.15
2018-08-08T09:02:39.636Z,11.38
2018-08-08T09:05:08.987Z,8.90
2018-08-08T09:07:37.528Z,9.40
2018-08-08T09:10:06.413Z,8.88
2018-08-08T09:12:34.806Z,8.18
2018-08-08T09:15:03.316Z,7.75
2018-08-08T09:17:31.848Z,9.33
2018-08-08T09:20:00.437Z,8.00
2018-08-08T09:22:28.813Z,7.12
2018-08-08T09:24:57.196Z,6.55
2018-08-08T09:27:25.587Z,6.10
2018-08-08T09:29:59.283Z,6.70
2018-08-08T09:32:27.858Z,6.60
2018-08-08T09:34:56.460Z,6.62
2018-08-08T09:37:24.827Z,7.05
2018-08-08T09:39:53.406Z,5.80
2018-08-08T09:42:21.786Z,7.35
2018-08-08T09:44:50.186Z,6.10
2018-08-08T09:47:18.584Z,5.70
2018-08-08T09:49:46.994Z,6.53
2018-08-08T09:52:15.608Z,6.42
2018-08-08T09:54:44.111Z,7.78
2018-08-08T09:57:12.498Z,7.45
2018-08-08T09:59:40.942Z,6.40
2018-08-08T10:02:14.677Z,7.15
2018-08-08T10:04:43.079Z,6.53
2018-08-08T10:07:11.620Z,5.80
2018-08-08T10:09:40.019Z,6.30
2018-08-08T10:12:08.673Z,6.33
2018-08-08T10:14:37.063Z,6.00
2018-08-08T10:17:05.450Z,8.25
2018-08-08T10:19:33.858Z,6.75
2018-08-08T10:22:02.409Z,6.25
2018-08-08T10:24:30.907Z,7.65
2018-08-08T10:26:59.353Z,7.50
2018-08-08T10:29:27.762Z,8.80
2018-08-08T10:31:56.338Z,7.78
2018-08-08T10:34:24.742Z,6.17
2018-08-08T10:36:53.126Z,6.40
2018-08-08T10:39:21.573Z,7.22
2018-08-08T10:41:49.961Z,6.05
2018-08-08T10:44:18.537Z,6.80
2018-08-08T10:46:46.951Z,8.18
2018-08-08T10:49:15.420Z,5.70
2018-08-08T10:51:43.865Z,6.12
2018-08-08T10:54:12.260Z,6.37
2018-08-08T10:56:40.735Z,6.00
2018-08-08T10:59:09.195Z,7.55
2018-08-08T11:01:37.576Z,5.80
2018-08-08T11:04:05.999Z,5.78
2018-08-08T11:06:34.666Z,5.90
2018-08-08T11:09:03.181Z,5.72
2018-08-08T11:11:31.566Z,5.80
2018-08-08T11:14:00.143Z,5.37
2018-08-08T11:16:28.620Z,5.67
2018-08-08T11:18:57.019Z,8.53
2018-08-08T11:21:25.463Z,5.78
2018-08-08T11:23:54.080Z,9.13
2018-08-08T11:26:22.487Z,6.62
2018-08-08T11:28:50.914Z,5.33
2018-08-08T11:31:19.486Z,5.72
2018-08-08T11:33:47.964Z,6.78
2018-08-08T11:36:16.409Z,5.95
2018-08-08T11:38:44.859Z,5.08
2018-08-08T11:41:13.248Z,7.45
2018-08-08T11:43:41.616Z,5.72
2018-08-08T11:46:09.979Z,5.17
2018-08-08T11:48:38.386Z,6.00
2018-08-08T11:51:07.055Z,5.37
2018-08-08T11:53:35.479Z,7.78
2018-08-08T11:56:04.101Z,5.85
2018-08-08T11:58:32.526Z,5.35
2018-08-08T12:01:01.042Z,6.15
2018-08-08T12:03:29.644Z,5.75
2018-08-08T12:05:58.264Z,5.33
2018-08-08T12:08:26.760Z,5.30
2018-08-08T12:10:55.294Z,5.58
2018-08-08T12:13:23.723Z,5.85
2018-08-08T12:15:52.147Z,5.28
2018-08-08T12:18:20.477Z,5.60
2018-08-08T12:20:48.939Z,5.40
2018-08-08T12:23:17.555Z,5.22
2018-08-08T12:25:45.973Z,5.30
2018-08-08T12:28:14.462Z,5.33
2018-08-08T12:30:42.945Z,5.07
2018-08-08T12:33:11.525Z,6.12
2018-08-08T12:35:40.069Z,6.13
2018-08-08T12:38:08.431Z,5.90
2018-08-08T12:40:36.848Z,6.72
2018-08-08T12:43:05.302Z,6.28
2018-08-08T12:45:33.935Z,6.85
2018-08-08T12:48:02.359Z,8.98
2018-08-08T12:50:30.843Z,7.33
2018-08-08T12:52:59.482Z,6.40
2018-08-08T12:55:28.163Z,6.15
2018-08-08T12:57:56.604Z,5.42
2018-08-08T13:00:25.053Z,5.55
2018-08-08T13:02:53.630Z,5.67
2018-08-08T13:05:22.027Z,5.55
2018-08-08T13:07:50.574Z,5.33
2018-08-08T13:10:18.967Z,6.37
2018-08-08T13:12:47.421Z,6.85
2018-08-08T13:15:15.827Z,5.55
2018-08-08T13:17:44.217Z,5.72
2018-08-08T13:20:12.778Z,8.40
2018-08-08T13:22:41.160Z,9.23
2018-08-08T13:25:09.556Z,5.12
2018-08-08T13:27:38.034Z,5.37
2018-08-08T13:30:06.505Z,5.78
2018-08-08T13:32:34.902Z,7.62
2018-08-08T13:35:03.355Z,7.30
2018-08-08T13:37:31.868Z,6.00
2018-08-08T13:40:00.279Z,5.97
2018-08-08T13:42:28.809Z,5.25
2018-08-08T13:44:57.314Z,11.18
2018-08-08T13:47:25.697Z,6.30
2018-08-08T13:49:54.254Z,6.60
2018-08-08T13:52:22.675Z,6.17
2018-08-08T13:54:51.108Z,5.58
2018-08-08T13:57:19.620Z,5.45
2018-08-08T13:59:48.179Z,4.95
2018-08-08T14:02:16.737Z,6.62
2018-08-08T14:04:45.119Z,5.47
2018-08-08T14:07:13.527Z,6.72
2018-08-08T14:09:41.980Z,5.72
2018-08-08T14:12:10.443Z,6.80
2018-08-08T14:14:38.862Z,7.42
2018-08-08T14:17:07.258Z,5.33
2018-08-08T14:19:35.843Z,5.83
2018-08-08T14:22:04.301Z,6.03
2018-08-08T14:24:32.823Z,5.40
2018-08-08T14:27:01.325Z,5.87
2018-08-08T14:29:29.771Z,6.45
2018-08-08T14:31:58.206Z,6.15
2018-08-08T14:34:26.824Z,6.50
2018-08-08T14:36:55.359Z,6.90
2018-08-08T14:39:23.827Z,7.65
2018-08-08T14:41:52.375Z,5.95
2018-08-08T14:44:20.770Z,7.25
2018-08-08T14:46:49.191Z,5.58
2018-08-08T14:49:18.239Z,4.20
2018-08-08T14:51:46.927Z,6.03
2018-08-08T14:54:15.516Z,8.43
2018-08-08T14:56:44.079Z,6.85
2018-08-08T14:59:12.475Z,5.22
2018-08-08T15:01:42.761Z,5.42
2018-08-08T15:04:11.917Z,7.53
2018-08-08T15:06:40.773Z,5.17
2018-08-08T15:09:11.549Z,5.25
2018-08-08T15:11:40.769Z,6.12
2018-08-08T15:14:09.830Z,5.83
2018-08-08T15:16:39.363Z,11.08
2018-08-08T15:19:09.313Z,10.30
2018-08-08T15:21:38.585Z,12.37
2018-08-08T15:24:07.909Z,14.00
2018-08-08T15:26:37.122Z,16.05
2018-08-08T15:29:07.175Z,15.40
2018-08-08T15:31:36.248Z,18.35
2018-08-08T15:36:44.277Z,14.73
2018-08-08T15:39:13.296Z,8.58
2018-08-08T15:41:42.333Z,11.25
2018-08-08T15:44:11.032Z,9.50
2018-08-08T15:46:39.983Z,6.95
2018-08-08T15:49:08.984Z,7.85
2018-08-08T15:51:38.215Z,7.92
2018-08-08T15:54:07.171Z,8.08
2018-08-08T15:56:36.037Z,5.65
2018-08-08T15:59:06.677Z,5.40
2018-08-08T16:01:35.179Z,6.40
2018-08-08T16:04:04.015Z,7.62
2018-08-08T16:06:33.110Z,6.10
2018-08-08T16:09:01.760Z,5.60
2018-08-08T16:11:30.339Z,5.30
2018-08-08T16:13:58.864Z,6.95
2018-08-08T16:16:27.839Z,7.00
2018-08-08T16:18:56.353Z,6.78
2018-08-08T16:21:24.914Z,6.58
2018-08-08T16:23:53.501Z,6.47
2018-08-08T16:26:22.725Z,7.33
2018-08-08T16:28:51.208Z,6.15
2018-08-08T16:31:19.677Z,5.90
2018-08-08T16:33:48.085Z,5.80
2018-08-08T16:36:16.623Z,9.05
2018-08-08T16:38:45.312Z,5.20
2018-08-08T16:41:13.897Z,6.00
2018-08-08T16:43:42.287Z,6.05
2018-08-08T16:46:10.839Z,6.12
2018-08-08T16:48:39.652Z,5.55
2018-08-08T16:51:08.093Z,7.10
2018-08-08T16:53:36.543Z,5.70
2018-08-08T16:56:05.094Z,6.45
2018-08-08T16:58:33.548Z,7.05
2018-08-08T17:01:02.170Z,7.30
2018-08-08T17:03:30.717Z,6.40
2018-08-08T17:05:59.186Z,7.90
2018-08-08T17:08:27.619Z,7.10
2018-08-08T17:10:56.491Z,6.50
2018-08-08T17:13:24.977Z,6.55
2018-08-08T17:15:53.645Z,6.78
2018-08-08T17:18:22.106Z,6.80
2018-08-08T17:20:50.594Z,6.80
2018-08-08T17:23:19.011Z,10.95
2018-08-08T17:25:47.661Z,7.22
2018-08-08T17:28:16.092Z,6.62
2018-08-08T17:30:45.067Z,6.62
2018-08-08T17:33:13.730Z,6.50
2018-08-08T17:35:42.256Z,6.05
2018-08-08T17:38:10.813Z,7.87
2018-08-08T17:40:39.504Z,7.10
2018-08-08T17:43:08.366Z,6.00
2018-08-08T17:45:36.822Z,6.28
2018-08-08T17:48:06.118Z,6.37
2018-08-08T17:50:34.762Z,7.60
2018-08-08T17:53:03.379Z,6.20
2018-08-08T17:55:32.525Z,6.85
2018-08-08T17:58:01.135Z,6.15
2018-08-08T18:00:29.862Z,6.17
2018-08-08T18:02:58.302Z,7.35
2018-08-08T18:05:27.085Z,6.50
2018-08-08T18:07:55.773Z,8.80
2018-08-08T18:10:24.565Z,7.37
2018-08-08T18:12:53.177Z,8.38
2018-08-08T18:15:21.949Z,9.48
2018-08-08T18:17:50.689Z,29.87
2018-08-08T18:20:19.332Z,7.25
2018-08-08T18:22:47.842Z,6.40
2018-08-08T18:25:16.524Z,7.67
2018-08-08T18:27:45.042Z,7.10
2018-08-08T18:30:13.649Z,6.85
2018-08-08T18:32:42.430Z,8.48
2018-08-08T18:35:10.966Z,7.47
2018-08-08T18:37:39.633Z,7.72
2018-08-08T18:40:09.021Z,6.90
2018-08-08T18:42:37.596Z,7.25
2018-08-08T18:45:06.431Z,6.78
2018-08-08T18:47:35.001Z,9.08
2018-08-08T18:50:03.686Z,9.15
2018-08-08T18:52:33.014Z,7.37
2018-08-08T18:55:01.590Z,7.45
2018-08-08T18:57:30.163Z,7.75
2018-08-08T18:59:58.644Z,7.85
2018-08-08T19:02:27.042Z,7.60
2018-08-08T19:04:55.471Z,7.85
2018-08-08T19:07:23.960Z,8.43
2018-08-08T19:09:52.451Z,9.73
2018-08-08T19:12:21.027Z,8.30
2018-08-08T19:14:49.506Z,7.92
2018-08-08T19:17:18.102Z,8.50
2018-08-08T19:19:46.540Z,8.10
2018-08-08T19:22:15.172Z,8.03
2018-08-08T19:24:43.724Z,8.53
2018-08-08T19:27:12.299Z,8.73
2018-08-08T19:29:40.798Z,8.68
2018-08-08T19:32:09.534Z,10.15
2018-08-08T19:34:38.497Z,9.40
2018-08-08T19:37:07.194Z,8.33
2018-08-08T19:39:35.739Z,8.78
2018-08-08T19:42:04.473Z,7.85
2018-08-08T19:44:33.383Z,7.22
2018-08-08T19:47:03.876Z,8.30
2018-08-08T19:49:34.580Z,8.25
2018-08-08T19:52:04.022Z,9.33
2018-08-08T19:54:33.750Z,9.03
2018-08-08T19:57:03.207Z,8.93
2018-08-08T19:59:34.856Z,9.10
2018-08-08T20:02:04.745Z,10.08
2018-08-08T20:04:34.763Z,8.55
2018-08-08T20:07:04.471Z,9.30
2018-08-08T20:09:34.770Z,9.18
2018-08-08T20:12:04.240Z,8.25
2018-08-08T20:14:33.616Z,9.83
2018-08-08T20:17:02.688Z,8.93
2018-08-08T20:19:32.683Z,9.45
2018-08-08T20:22:02.408Z,9.30
2018-08-08T20:24:32.473Z,10.98
2018-08-08T20:27:02.430Z,8.80
2018-08-08T20:29:32.353Z,8.58
2018-08-08T20:32:02.443Z,8.63
2018-08-08T20:34:32.520Z,8.78
2018-08-08T20:37:01.356Z,8.48
2018-08-08T20:39:30.623Z,9.05
2018-08-08T20:41:59.813Z,9.08
2018-08-08T20:44:28.803Z,9.13
2018-08-08T20:46:57.549Z,8.65
2018-08-08T20:49:26.802Z,10.28
2018-08-08T20:51:55.706Z,8.18
2018-08-08T20:54:24.510Z,8.55
2018-08-08T20:56:53.364Z,9.08
2018-08-08T20:59:22.111Z,10.15
2018-08-08T21:01:50.947Z,10.70
2018-08-08T21:04:19.559Z,8.65
2018-08-08T21:06:47.995Z,8.48
2018-08-08T21:09:16.383Z,8.65
2018-08-08T21:11:44.793Z,8.73
2018-08-08T21:14:13.191Z,8.08
2018-08-08T21:16:41.653Z,8.80
2018-08-08T21:19:10.050Z,8.58
2018-08-08T21:21:38.491Z,9.70
2018-08-08T21:24:07.009Z,9.10
2018-08-08T21:26:35.386Z,9.18
2018-08-08T21:29:03.771Z,9.33
2018-08-08T21:31:32.252Z,9.90
2018-08-08T21:34:00.723Z,8.93
2018-08-08T21:36:29.115Z,8.70
2018-08-08T21:38:57.503Z,9.23
2018-08-08T21:41:25.879Z,9.07
2018-08-08T21:43:54.353Z,9.20
2018-08-08T21:46:22.872Z,9.88
2018-08-08T21:48:51.286Z,8.98
2018-08-08T21:51:19.663Z,8.97
2018-08-08T21:53:59.471Z,8.98
2018-08-08T21:57:39.166Z,9.50
2018-08-08T22:00:18.959Z,9.30
2018-08-08T22:02:58.767Z,8.73
2018-08-08T22:05:38.548Z,8.48
2018-08-08T22:08:18.385Z,9.15
2018-08-08T22:10:58.124Z,8.70
2018-08-08T22:13:38.149Z,9.48
2018-08-08T22:16:18.008Z,8.83
2018-08-08T22:18:58.280Z,8.95
2018-08-08T22:21:26.657Z,8.97
2018-08-08T22:23:55.055Z,10.32
2018-08-08T22:26:23.459Z,8.80
2018-08-08T22:28:51.870Z,8.90
2018-08-08T22:31:20.456Z,9.50
2018-08-08T22:33:48.946Z,8.25
2018-08-08T22:36:17.333Z,8.93
2018-08-08T22:38:45.910Z,10.08
2018-08-08T22:41:14.338Z,8.60
2018-08-08T22:43:42.760Z,9.63
2018-08-08T22:46:11.113Z,8.95
2018-08-08T22:48:39.474Z,9.63
2018-08-08T22:51:07.870Z,8.73
2018-08-08T22:53:36.243Z,9.13
2018-08-08T22:56:04.629Z,8.48
2018-08-08T22:58:33.455Z,8.78
2018-08-08T23:01:01.823Z,8.87
2018-08-08T23:03:30.215Z,9.80
2018-08-08T23:05:58.795Z,9.05
2018-08-08T23:08:30.403Z,9.28
2018-08-08T23:10:58.933Z,9.20
2018-08-08T23:13:27.277Z,8.73
2018-08-08T23:15:55.712Z,8.83
2018-08-08T23:18:24.091Z,9.10
2018-08-08T23:20:52.519Z,9.05
2018-08-08T23:23:20.942Z,9.30
2018-08-08T23:25:49.379Z,9.98
2018-08-08T23:28:17.901Z,9.55
2018-08-08T23:30:46.326Z,12.33
2018-08-08T23:33:14.720Z,9.10
2018-08-08T23:35:43.367Z,9.50
2018-08-08T23:38:11.782Z,9.23
2018-08-08T23:40:40.195Z,9.43
2018-08-08T23:43:08.585Z,9.75
2018-08-08T23:45:36.987Z,10.07
2018-08-08T23:48:05.659Z,9.33
2018-08-08T23:50:34.112Z,10.28
2018-08-08T23:53:02.472Z,9.50
2018-08-08T23:55:30.960Z,10.75
2018-08-08T23:57:59.359Z,10.08
